createdAt,value
2022-10-22T00:00:54.236Z,78.47
2022-10-22T00:05:58.140Z,87.22
2022-10-22T00:11:09.840Z,85.88
2022-10-22T00:16:14.263Z,78.43
2022-10-22T00:21:18.102Z,79.18
2022-10-22T00:26:23.609Z,75.00
2022-10-22T00:31:27.467Z,70.03
2022-10-22T00:36:31.343Z,59.67
2022-10-22T00:41:36.613Z,56.95
2022-10-22T00:46:40.378Z,50.72
2022-10-22T00:51:44.159Z,48.55
2022-10-22T00:56:49.362Z,44.90
2022-10-22T01:01:53.920Z,48.90
2022-10-22T01:06:57.855Z,46.03
2022-10-22T01:12:06.383Z,40.47
2022-10-22T01:17:13.926Z,36.85
2022-10-22T01:22:22.028Z,41.67
2022-10-22T01:27:37.067Z,42.33
2022-10-22T01:32:45.838Z,49.58
2022-10-22T01:37:51.448Z,45.47
2022-10-22T01:42:57.874Z,45.13
2022-10-22T01:48:09.962Z,46.50
2022-10-22T01:53:22.971Z,42.95
2022-10-22T01:58:35.817Z,40.97
2022-10-22T02:03:46.922Z,42.00
2022-10-22T02:08:51.642Z,39.28
2022-10-22T02:13:58.443Z,49.85
2022-10-22T02:19:05.732Z,42.63
2022-10-22T02:24:09.667Z,40.67
2022-10-22T02:29:16.362Z,41.28
2022-10-22T02:34:25.409Z,42.28
2022-10-22T02:39:30.046Z,49.10
2022-10-22T02:44:33.871Z,46.38
2022-10-22T02:49:39.018Z,50.90
2022-10-22T02:54:42.778Z,40.42
2022-10-22T02:59:46.578Z,32.95
2022-10-22T03:04:51.832Z,35.30
2022-10-22T03:09:55.662Z,25.23
2022-10-22T03:14:59.476Z,41.75
2022-10-22T03:20:05.058Z,38.78
2022-10-22T03:25:12.171Z,37.57
2022-10-22T03:30:15.946Z,38.25
2022-10-22T03:35:21.258Z,40.63
2022-10-22T03:40:25.050Z,43.80
2022-10-22T03:45:28.853Z,41.90
2022-10-22T03:50:34.206Z,37.42
2022-10-22T03:55:38.375Z,30.70
2022-10-22T04:00:42.276Z,38.35
2022-10-22T04:05:47.431Z,40.85
2022-10-22T04:10:52.820Z,38.47
2022-10-22T04:15:56.612Z,48.87
2022-10-22T04:21:02.371Z,41.20
2022-10-22T04:26:08.163Z,45.85
2022-10-22T04:31:15.223Z,46.03
2022-10-22T04:36:20.819Z,40.70
2022-10-22T04:41:26.361Z,33.10
2022-10-22T04:46:31.689Z,33.27
2022-10-22T04:51:36.847Z,44.83
2022-10-22T04:56:40.630Z,40.50
2022-10-22T05:01:45.755Z,40.22
2022-10-22T05:06:50.932Z,39.15
2022-10-22T05:11:54.794Z,40.33
2022-10-22T05:16:58.571Z,40.75
2022-10-22T05:22:05.326Z,40.53
2022-10-22T05:27:09.207Z,37.10
2022-10-22T05:32:13.019Z,26.70
2022-10-22T05:37:18.166Z,31.48
2022-10-22T05:42:21.974Z,27.58
2022-10-22T05:47:25.898Z,28.80
2022-10-22T05:52:31.079Z,26.65
2022-10-22T05:57:34.888Z,22.63
2022-10-22T06:02:38.882Z,25.42
2022-10-22T06:07:44.351Z,28.35
2022-10-22T06:12:48.896Z,25.25
2022-10-22T06:17:52.667Z,25.30
2022-10-22T06:22:57.828Z,22.20
2022-10-22T06:28:01.586Z,22.02
2022-10-22T06:33:05.410Z,24.85
2022-10-22T06:38:10.559Z,19.80
2022-10-22T06:43:14.576Z,19.98
2022-10-22T06:48:18.383Z,19.17
2022-10-22T06:53:23.581Z,21.15
2022-10-22T06:58:27.379Z,18.05
2022-10-22T07:03:31.211Z,24.88
2022-10-22T07:08:36.566Z,25.17
2022-10-22T07:13:40.427Z,21.30
2022-10-22T07:18:44.719Z,25.27
2022-10-22T07:23:50.203Z,26.15
2022-10-22T07:28:54.014Z,22.33
2022-10-22T07:33:57.994Z,27.67
2022-10-22T07:39:03.516Z,25.48
2022-10-22T07:44:07.328Z,25.07
2022-10-22T07:49:11.145Z,18.98
2022-10-22T07:54:16.763Z,21.92
2022-10-22T07:59:20.824Z,20.55
2022-10-22T08:04:24.723Z,22.65
2022-10-22T08:09:29.953Z,18.00
2022-10-22T08:14:33.839Z,21.98
2022-10-22T08:19:37.877Z,20.13
2022-10-22T08:24:43.127Z,16.92
2022-10-22T08:29:46.986Z,20.57
2022-10-22T08:34:50.954Z,21.92
2022-10-22T08:39:56.140Z,21.17
2022-10-22T08:45:08.060Z,22.85
2022-10-22T08:50:14.101Z,23.02
2022-10-22T08:55:19.724Z,23.55
2022-10-22T09:00:26.639Z,22.40
2022-10-22T09:05:37.999Z,27.00
2022-10-22T09:10:47.786Z,22.13
2022-10-22T09:15:55.632Z,20.75
2022-10-22T09:21:02.655Z,25.30
2022-10-22T09:26:14.294Z,19.58
2022-10-22T09:31:18.360Z,15.35
2022-10-22T09:36:23.876Z,22.10
2022-10-22T09:41:30.891Z,22.05
2022-10-22T09:46:44.019Z,29.35
2022-10-22T09:51:55.734Z,21.20
2022-10-22T09:57:07.585Z,22.73
2022-10-22T10:02:26.675Z,25.10
2022-10-22T10:07:39.070Z,22.45
2022-10-22T10:12:47.497Z,20.95
2022-10-22T10:17:57.309Z,22.00
2022-10-22T10:23:06.275Z,23.38
2022-10-22T10:28:24.303Z,18.90
2022-10-22T10:33:35.280Z,18.58
2022-10-22T10:38:50.065Z,23.45
2022-10-22T10:44:14.211Z,23.42
2022-10-22T10:49:21.120Z,20.75
2022-10-22T10:54:35.537Z,19.85
2022-10-22T10:59:55.891Z,17.77
2022-10-22T11:05:21.731Z,24.90
2022-10-22T11:10:30.731Z,21.97
2022-10-22T11:15:37.576Z,28.83
2022-10-22T11:20:47.579Z,26.40
2022-10-22T11:25:51.898Z,21.23
2022-10-22T11:31:01.694Z,21.05
2022-10-22T11:36:06.786Z,25.13
2022-10-22T11:41:13.512Z,30.30
2022-10-22T11:46:30.858Z,32.38
2022-10-22T11:51:36.115Z,17.38
2022-10-22T11:56:40.676Z,20.43
2022-10-22T12:01:49.471Z,23.42
2022-10-22T12:06:58.896Z,17.27
2022-10-22T12:12:14.528Z,18.30
2022-10-22T12:17:20.394Z,23.20
2022-10-22T12:22:25.637Z,25.30
2022-10-22T12:27:35.795Z,17.93
2022-10-22T12:32:41.631Z,15.18
2022-10-22T12:37:45.553Z,18.90
2022-10-22T12:42:51.573Z,20.98
2022-10-22T12:53:02.608Z,17.70
2022-10-22T12:58:07.641Z,21.98
2022-10-22T13:03:27.033Z,29.40
2022-10-22T13:08:30.845Z,22.95
2022-10-22T13:13:35.911Z,22.90
2022-10-22T13:18:41.158Z,20.30
2022-10-22T13:23:54.346Z,20.00
2022-10-22T13:28:58.728Z,22.25
2022-10-22T13:34:09.819Z,16.45
2022-10-22T13:39:18.656Z,23.10
2022-10-22T13:44:22.454Z,22.80
2022-10-22T13:49:27.654Z,22.73
2022-10-22T13:54:31.474Z,16.20
2022-10-22T13:59:35.274Z,24.52
2022-10-22T14:04:41.868Z,25.20
2022-10-22T14:09:45.662Z,38.78
2022-10-22T14:14:49.498Z,24.58
2022-10-22T14:19:54.747Z,28.38
2022-10-22T14:24:58.571Z,27.97
2022-10-22T14:30:02.434Z,33.40
2022-10-22T14:35:08.503Z,22.15
2022-10-22T14:45:19.878Z,29.88
2022-10-22T14:55:29.183Z,40.40
2022-10-22T15:00:34.571Z,36.63
2022-10-22T15:05:44.557Z,39.15
2022-10-22T15:10:48.858Z,34.35
2022-10-22T15:15:52.629Z,47.17
2022-10-22T15:20:59.282Z,36.70
2022-10-22T15:26:03.055Z,30.15
2022-10-22T15:31:07.954Z,39.13
2022-10-22T15:36:14.928Z,45.92
2022-10-22T15:41:18.699Z,42.47
2022-10-22T15:46:22.481Z,44.10
2022-10-22T15:51:27.669Z,34.63
2022-10-22T15:56:31.624Z,25.73
2022-10-22T16:01:36.560Z,28.23
2022-10-22T16:06:43.643Z,33.42
2022-10-22T16:11:47.497Z,40.53
2022-10-22T16:16:53.056Z,45.92
2022-10-22T16:21:59.499Z,43.45
2022-10-22T16:27:03.564Z,31.67
2022-10-22T16:32:07.651Z,31.27
2022-10-22T16:37:12.881Z,34.35
2022-10-22T16:42:16.677Z,34.40
2022-10-22T16:47:20.450Z,32.55
2022-10-22T16:52:25.818Z,28.35
2022-10-22T16:57:29.758Z,29.80
2022-10-22T17:02:33.544Z,37.88
2022-10-22T17:07:38.731Z,37.33
2022-10-22T17:12:42.962Z,33.53
2022-10-22T17:17:51.005Z,34.95
2022-10-22T17:22:56.490Z,36.60
2022-10-22T17:28:00.271Z,41.13
2022-10-22T17:33:04.050Z,41.30
2022-10-22T17:38:09.214Z,34.40
2022-10-22T17:43:13.680Z,35.40
2022-10-22T17:48:19.148Z,39.97
2022-10-22T17:53:24.356Z,41.10
2022-10-22T17:58:28.227Z,48.10
2022-10-22T18:03:32.112Z,41.50
2022-10-22T18:08:37.501Z,38.92
2022-10-22T18:13:41.491Z,40.20
2022-10-22T18:18:46.701Z,41.97
2022-10-22T18:23:51.959Z,32.70
2022-10-22T18:28:55.916Z,39.63
2022-10-22T18:33:59.831Z,38.60
2022-10-22T18:39:06.146Z,44.20
2022-10-22T18:44:10.094Z,48.42
2022-10-22T18:49:15.951Z,38.78
2022-10-22T18:54:23.599Z,48.03
2022-10-22T18:59:29.098Z,45.35
2022-10-22T19:04:37.099Z,44.30
2022-10-22T19:09:43.782Z,42.03
2022-10-22T19:14:48.699Z,40.17
2022-10-22T19:19:52.478Z,41.53
2022-10-22T19:24:58.960Z,42.83
2022-10-22T19:30:02.820Z,45.00
2022-10-22T19:35:07.130Z,40.33
2022-10-22T19:40:13.073Z,41.67
2022-10-22T19:50:21.962Z,37.60
2022-10-22T19:55:27.169Z,32.95
2022-10-22T20:00:32.216Z,44.78
2022-10-22T20:05:39.516Z,43.25
2022-10-22T20:10:44.728Z,38.08
2022-10-22T20:15:49.691Z,26.45
2022-10-22T20:20:53.510Z,31.45
2022-10-22T20:25:58.751Z,32.45
2022-10-22T20:31:02.534Z,31.40
2022-10-22T20:36:08.395Z,29.73
2022-10-22T20:41:16.363Z,31.92
2022-10-22T20:46:23.015Z,31.90
2022-10-22T20:51:26.998Z,34.05
2022-10-22T20:56:32.163Z,32.88
2022-10-22T21:01:39.688Z,25.38
2022-10-22T21:06:44.161Z,20.90
2022-10-22T21:11:49.439Z,20.40
2022-10-22T21:16:53.367Z,21.57
2022-10-22T21:21:57.193Z,20.08
2022-10-22T21:27:03.385Z,23.38
2022-10-22T21:32:07.178Z,21.90
2022-10-22T21:37:10.939Z,21.50
2022-10-22T21:42:17.490Z,21.45
2022-10-22T21:47:21.289Z,19.88
2022-10-22T21:52:25.189Z,19.73
2022-10-22T21:57:30.367Z,20.08
2022-10-22T22:02:34.231Z,23.33
2022-10-22T22:07:38.042Z,19.75
2022-10-22T22:12:43.685Z,17.25
2022-10-22T22:17:47.926Z,18.30
2022-10-22T22:22:51.690Z,18.60
2022-10-22T22:27:56.883Z,20.02
2022-10-22T22:33:00.670Z,22.25
2022-10-22T22:38:05.166Z,15.82
2022-10-22T22:43:11.030Z,16.73
2022-10-22T22:48:14.819Z,17.90
2022-10-22T22:53:18.620Z,19.70
2022-10-22T22:58:23.792Z,16.13
2022-10-22T23:03:27.568Z,16.63
2022-10-22T23:08:31.374Z,18.95
2022-10-22T23:13:36.974Z,16.48
2022-10-22T23:18:40.828Z,14.43
2022-10-22T23:23:45.890Z,16.45
2022-10-22T23:28:51.101Z,21.70
2022-10-22T23:33:54.885Z,12.25
2022-10-22T23:38:58.694Z,18.10
2022-10-22T23:44:04.171Z,20.30
2022-10-22T23:49:08.877Z,18.27
2022-10-22T23:54:14.476Z,21.35
2022-10-22T23:59:19.737Z,17.05
